sensor_id;sensor_type;location;lat;lon;timestamp;P1;durP1;ratioP1;P2;durP2;ratioP2
4738;SDS011;2383;48.632;10.156;2023-08-06T00:03:22;6.82;;;5.28;;
4738;SDS011;2383;48.632;10.156;2023-08-06T00:07:24;6.78;;;5.90;;
4738;SDS011;2383;48.632;10.156;2023-08-06T00:11:26;6.40;;;5.80;;
4738;SDS011;2383;48.632;10.156;2023-08-06T00:15:28;6.65;;;5.90;;
4738;SDS011;2383;48.632;10.156;2023-08-06T00:19:31;5.88;;;5.28;;
4738;SDS011;2383;48.632;10.156;2023-08-06T00:23:33;7.10;;;5.15;;
4738;SDS011;2383;48.632;10.156;2023-08-06T00:27:36;6.63;;;5.53;;
4738;SDS011;2383;48.632;10.156;2023-08-06T00:31:38;6.20;;;5.60;;
4738;SDS011;2383;48.632;10.156;2023-08-06T00:35:40;7.40;;;5.55;;
4738;SDS011;2383;48.632;10.156;2023-08-06T00:39:42;6.97;;;5.45;;
4738;SDS011;2383;48.632;10.156;2023-08-06T00:43:45;8.73;;;6.78;;
4738;SDS011;2383;48.632;10.156;2023-08-06T00:47:47;8.45;;;6.13;;
4738;SDS011;2383;48.632;10.156;2023-08-06T00:51:50;7.60;;;6.40;;
4738;SDS011;2383;48.632;10.156;2023-08-06T00:55:53;6.90;;;6.20;;
4738;SDS011;2383;48.632;10.156;2023-08-06T00:59:55;8.93;;;6.72;;
4738;SDS011;2383;48.632;10.156;2023-08-06T01:03:57;7.40;;;6.57;;
4738;SDS011;2383;48.632;10.156;2023-08-06T01:16:50;8.98;;;7.78;;
4738;SDS011;2383;48.632;10.156;2023-08-06T01:20:53;8.07;;;7.07;;
4738;SDS011;2383;48.632;10.156;2023-08-06T01:24:55;8.65;;;7.75;;
4738;SDS011;2383;48.632;10.156;2023-08-06T01:29:08;9.80;;;8.02;;
4738;SDS011;2383;48.632;10.156;2023-08-06T01:33:18;8.38;;;7.47;;
4738;SDS011;2383;48.632;10.156;2023-08-06T01:37:23;8.07;;;7.28;;
4738;SDS011;2383;48.632;10.156;2023-08-06T01:41:25;8.38;;;7.50;;
4738;SDS011;2383;48.632;10.156;2023-08-06T01:45:27;11.73;;;7.00;;
4738;SDS011;2383;48.632;10.156;2023-08-06T01:49:29;9.00;;;7.03;;
4738;SDS011;2383;48.632;10.156;2023-08-06T01:53:31;11.07;;;6.95;;
4738;SDS011;2383;48.632;10.156;2023-08-06T01:57:34;11.32;;;7.50;;
4738;SDS011;2383;48.632;10.156;2023-08-06T02:01:36;7.57;;;6.72;;
4738;SDS011;2383;48.632;10.156;2023-08-06T02:05:39;8.20;;;7.13;;
4738;SDS011;2383;48.632;10.156;2023-08-06T02:09:42;8.65;;;7.75;;
4738;SDS011;2383;48.632;10.156;2023-08-06T02:13:45;9.27;;;7.50;;
4738;SDS011;2383;48.632;10.156;2023-08-06T02:17:52;17.60;;;6.55;;
4738;SDS011;2383;48.632;10.156;2023-08-06T02:21:54;6.82;;;6.15;;
4738;SDS011;2383;48.632;10.156;2023-08-06T02:26:00;9.65;;;6.70;;
4738;SDS011;2383;48.632;10.156;2023-08-06T02:30:06;6.57;;;5.88;;
4738;SDS011;2383;48.632;10.156;2023-08-06T02:34:08;7.55;;;5.90;;
4738;SDS011;2383;48.632;10.156;2023-08-06T02:38:10;8.43;;;6.72;;
4738;SDS011;2383;48.632;10.156;2023-08-06T02:42:12;12.15;;;7.07;;
4738;SDS011;2383;48.632;10.156;2023-08-06T02:46:14;7.30;;;6.60;;
4738;SDS011;2383;48.632;10.156;2023-08-06T02:50:16;8.57;;;7.22;;
4738;SDS011;2383;48.632;10.156;2023-08-06T02:54:18;7.55;;;6.75;;
4738;SDS011;2383;48.632;10.156;2023-08-06T02:58:21;7.82;;;6.90;;
4738;SDS011;2383;48.632;10.156;2023-08-06T03:02:41;11.70;;;6.57;;
4738;SDS011;2383;48.632;10.156;2023-08-06T03:07:09;9.80;;;6.68;;
4738;SDS011;2383;48.632;10.156;2023-08-06T03:11:20;9.80;;;7.00;;
4738;SDS011;2383;48.632;10.156;2023-08-06T03:15:25;7.65;;;6.15;;
4738;SDS011;2383;48.632;10.156;2023-08-06T03:19:28;8.35;;;6.18;;
4738;SDS011;2383;48.632;10.156;2023-08-06T03:23:30;8.50;;;6.00;;
4738;SDS011;2383;48.632;10.156;2023-08-06T03:27:35;7.30;;;6.30;;
4738;SDS011;2383;48.632;10.156;2023-08-06T03:31:37;7.50;;;6.63;;
4738;SDS011;2383;48.632;10.156;2023-08-06T03:35:40;10.20;;;6.72;;
4738;SDS011;2383;48.632;10.156;2023-08-06T03:39:42;9.32;;;6.57;;
4738;SDS011;2383;48.632;10.156;2023-08-06T03:43:45;7.85;;;6.10;;
4738;SDS011;2383;48.632;10.156;2023-08-06T03:47:54;5.97;;;5.45;;
4738;SDS011;2383;48.632;10.156;2023-08-06T03:51:56;7.53;;;6.32;;
4738;SDS011;2383;48.632;10.156;2023-08-06T03:55:58;7.43;;;6.00;;
4738;SDS011;2383;48.632;10.156;2023-08-06T04:00:03;7.78;;;5.93;;
4738;SDS011;2383;48.632;10.156;2023-08-06T04:04:15;7.25;;;6.00;;
4738;SDS011;2383;48.632;10.156;2023-08-06T04:08:17;9.57;;;6.00;;
4738;SDS011;2383;48.632;10.156;2023-08-06T04:12:19;6.47;;;5.68;;
4738;SDS011;2383;48.632;10.156;2023-08-06T04:16:23;6.25;;;5.43;;
4738;SDS011;2383;48.632;10.156;2023-08-06T04:20:27;7.75;;;6.10;;
4738;SDS011;2383;48.632;10.156;2023-08-06T04:24:29;8.48;;;5.80;;
4738;SDS011;2383;48.632;10.156;2023-08-06T04:28:32;9.35;;;6.22;;
4738;SDS011;2383;48.632;10.156;2023-08-06T04:32:34;6.00;;;5.45;;
4738;SDS011;2383;48.632;10.156;2023-08-06T04:36:36;6.97;;;6.28;;
4738;SDS011;2383;48.632;10.156;2023-08-06T04:40:42;7.60;;;6.10;;
4738;SDS011;2383;48.632;10.156;2023-08-06T04:44:44;8.77;;;6.35;;
4738;SDS011;2383;48.632;10.156;2023-08-06T04:48:46;7.47;;;5.90;;
4738;SDS011;2383;48.632;10.156;2023-08-06T04:52:48;7.35;;;6.15;;
4738;SDS011;2383;48.632;10.156;2023-08-06T04:56:49;9.40;;;6.57;;
4738;SDS011;2383;48.632;10.156;2023-08-06T05:00:52;6.65;;;6.05;;
4738;SDS011;2383;48.632;10.156;2023-08-06T05:04:55;8.27;;;5.93;;
4738;SDS011;2383;48.632;10.156;2023-08-06T05:08:57;10.35;;;5.65;;
4738;SDS011;2383;48.632;10.156;2023-08-06T05:12:59;7.32;;;6.07;;
4738;SDS011;2383;48.632;10.156;2023-08-06T05:17:02;8.27;;;5.68;;
4738;SDS011;2383;48.632;10.156;2023-08-06T05:21:05;8.25;;;6.57;;
4738;SDS011;2383;48.632;10.156;2023-08-06T05:25:07;7.47;;;5.18;;
4738;SDS011;2383;48.632;10.156;2023-08-06T05:29:10;5.90;;;5.28;;
4738;SDS011;2383;48.632;10.156;2023-08-06T05:33:12;6.28;;;5.65;;
4738;SDS011;2383;48.632;10.156;2023-08-06T05:37:14;6.50;;;5.57;;
4738;SDS011;2383;48.632;10.156;2023-08-06T05:41:16;9.32;;;5.00;;
4738;SDS011;2383;48.632;10.156;2023-08-06T05:45:18;6.68;;;5.30;;
4738;SDS011;2383;48.632;10.156;2023-08-06T05:49:20;6.40;;;4.80;;
4738;SDS011;2383;48.632;10.156;2023-08-06T05:53:22;6.35;;;4.80;;
4738;SDS011;2383;48.632;10.156;2023-08-06T05:57:24;15.60;;;4.82;;
4738;SDS011;2383;48.632;10.156;2023-08-06T06:01:26;5.75;;;4.30;;
4738;SDS011;2383;48.632;10.156;2023-08-06T06:05:28;7.63;;;4.03;;
4738;SDS011;2383;48.632;10.156;2023-08-06T06:09:30;3.53;;;2.72;;
4738;SDS011;2383;48.632;10.156;2023-08-06T06:13:32;4.55;;;2.88;;
4738;SDS011;2383;48.632;10.156;2023-08-06T06:17:34;6.78;;;2.60;;
4738;SDS011;2383;48.632;10.156;2023-08-06T06:21:37;3.00;;;2.70;;
4738;SDS011;2383;48.632;10.156;2023-08-06T06:25:43;5.22;;;2.45;;
4738;SDS011;2383;48.632;10.156;2023-08-06T06:29:50;4.20;;;2.30;;
4738;SDS011;2383;48.632;10.156;2023-08-06T06:33:54;5.13;;;2.50;;
4738;SDS011;2383;48.632;10.156;2023-08-06T06:37:56;3.20;;;2.38;;
4738;SDS011;2383;48.632;10.156;2023-08-06T06:41:58;3.22;;;2.40;;
4738;SDS011;2383;48.632;10.156;2023-08-06T06:46:09;3.95;;;2.22;;
4738;SDS011;2383;48.632;10.156;2023-08-06T06:50:11;2.53;;;2.10;;
4738;SDS011;2383;48.632;10.156;2023-08-06T06:54:13;4.97;;;2.20;;
4738;SDS011;2383;48.632;10.156;2023-08-06T06:58:15;5.65;;;1.80;;
4738;SDS011;2383;48.632;10.156;2023-08-06T07:02:17;1.95;;;1.65;;
4738;SDS011;2383;48.632;10.156;2023-08-06T07:06:20;1.98;;;1.42;;
4738;SDS011;2383;48.632;10.156;2023-08-06T07:10:22;3.63;;;1.50;;
4738;SDS011;2383;48.632;10.156;2023-08-06T07:14:25;4.38;;;1.63;;
4738;SDS011;2383;48.632;10.156;2023-08-06T07:18:27;4.10;;;1.40;;
4738;SDS011;2383;48.632;10.156;2023-08-06T07:22:29;2.58;;;1.55;;
4738;SDS011;2383;48.632;10.156;2023-08-06T07:26:31;1.58;;;1.10;;
4738;SDS011;2383;48.632;10.156;2023-08-06T07:30:37;1.20;;;1.10;;
4738;SDS011;2383;48.632;10.156;2023-08-06T07:34:40;1.40;;;0.90;;
4738;SDS011;2383;48.632;10.156;2023-08-06T07:38:42;1.50;;;0.88;;
4738;SDS011;2383;48.632;10.156;2023-08-06T07:42:44;1.42;;;0.90;;
4738;SDS011;2383;48.632;10.156;2023-08-06T07:46:46;3.30;;;0.60;;
4738;SDS011;2383;48.632;10.156;2023-08-06T07:50:51;1.15;;;0.80;;
4738;SDS011;2383;48.632;10.156;2023-08-06T07:54:54;1.58;;;0.60;;
4738;SDS011;2383;48.632;10.156;2023-08-06T07:58:56;1.33;;;0.90;;
4738;SDS011;2383;48.632;10.156;2023-08-06T08:02:58;1.25;;;0.60;;
4738;SDS011;2383;48.632;10.156;2023-08-06T08:07:00;0.60;;;0.60;;
4738;SDS011;2383;48.632;10.156;2023-08-06T08:11:02;0.95;;;0.50;;
4738;SDS011;2383;48.632;10.156;2023-08-06T08:15:05;1.15;;;0.50;;
4738;SDS011;2383;48.632;10.156;2023-08-06T08:19:07;1.02;;;0.50;;
4738;SDS011;2383;48.632;10.156;2023-08-06T08:23:09;0.40;;;0.40;;
4738;SDS011;2383;48.632;10.156;2023-08-06T08:27:11;1.90;;;0.70;;
4738;SDS011;2383;48.632;10.156;2023-08-06T08:31:14;0.55;;;0.47;;
4738;SDS011;2383;48.632;10.156;2023-08-06T08:35:17;0.80;;;0.50;;
4738;SDS011;2383;48.632;10.156;2023-08-06T08:39:18;0.50;;;0.50;;
4738;SDS011;2383;48.632;10.156;2023-08-06T08:43:21;1.00;;;0.50;;
4738;SDS011;2383;48.632;10.156;2023-08-06T08:47:24;0.50;;;0.50;;
4738;SDS011;2383;48.632;10.156;2023-08-06T08:51:27;0.95;;;0.60;;
4738;SDS011;2383;48.632;10.156;2023-08-06T08:55:29;0.40;;;0.40;;
4738;SDS011;2383;48.632;10.156;2023-08-06T08:59:33;1.45;;;0.50;;
4738;SDS011;2383;48.632;10.156;2023-08-06T09:03:35;0.40;;;0.40;;
4738;SDS011;2383;48.632;10.156;2023-08-06T09:07:40;0.50;;;0.50;;
4738;SDS011;2383;48.632;10.156;2023-08-06T09:11:46;0.30;;;0.30;;
4738;SDS011;2383;48.632;10.156;2023-08-06T09:15:51;0.60;;;0.45;;
4738;SDS011;2383;48.632;10.156;2023-08-06T09:19:52;0.40;;;0.40;;
4738;SDS011;2383;48.632;10.156;2023-08-06T09:23:55;0.40;;;0.40;;
4738;SDS011;2383;48.632;10.156;2023-08-06T09:27:57;0.50;;;0.50;;
4738;SDS011;2383;48.632;10.156;2023-08-06T09:31:59;1.15;;;0.32;;
4738;SDS011;2383;48.632;10.156;2023-08-06T09:36:08;0.30;;;0.30;;
4738;SDS011;2383;48.632;10.156;2023-08-06T09:44:31;1.48;;;0.40;;
4738;SDS011;2383;48.632;10.156;2023-08-06T09:48:34;2.17;;;0.30;;
4738;SDS011;2383;48.632;10.156;2023-08-06T09:52:36;0.30;;;0.30;;
4738;SDS011;2383;48.632;10.156;2023-08-06T09:56:38;0.50;;;0.40;;
4738;SDS011;2383;48.632;10.156;2023-08-06T10:00:41;0.63;;;0.50;;
4738;SDS011;2383;48.632;10.156;2023-08-06T10:04:44;0.55;;;0.30;;
4738;SDS011;2383;48.632;10.156;2023-08-06T10:08:55;0.60;;;0.45;;
4738;SDS011;2383;48.632;10.156;2023-08-06T10:12:58;0.40;;;0.40;;
4738;SDS011;2383;48.632;10.156;2023-08-06T10:17:02;1.38;;;1.17;;
4738;SDS011;2383;48.632;10.156;2023-08-06T10:21:07;0.52;;;0.43;;
4738;SDS011;2383;48.632;10.156;2023-08-06T10:25:10;0.55;;;0.55;;
4738;SDS011;2383;48.632;10.156;2023-08-06T10:29:36;0.30;;;0.30;;
4738;SDS011;2383;48.632;10.156;2023-08-06T10:33:42;0.75;;;0.38;;
4738;SDS011;2383;48.632;10.156;2023-08-06T10:37:46;0.77;;;0.60;;
4738;SDS011;2383;48.632;10.156;2023-08-06T10:41:48;0.35;;;0.35;;
4738;SDS011;2383;48.632;10.156;2023-08-06T10:45:50;0.30;;;0.30;;
4738;SDS011;2383;48.632;10.156;2023-08-06T10:49:53;0.30;;;0.30;;
4738;SDS011;2383;48.632;10.156;2023-08-06T10:53:55;0.38;;;0.38;;
4738;SDS011;2383;48.632;10.156;2023-08-06T10:57:59;0.40;;;0.40;;
4738;SDS011;2383;48.632;10.156;2023-08-06T11:02:01;0.30;;;0.30;;
4738;SDS011;2383;48.632;10.156;2023-08-06T11:06:03;0.30;;;0.30;;
4738;SDS011;2383;48.632;10.156;2023-08-06T11:10:08;0.68;;;0.40;;
4738;SDS011;2383;48.632;10.156;2023-08-06T11:14:14;0.40;;;0.32;;
4738;SDS011;2383;48.632;10.156;2023-08-06T11:18:17;0.30;;;0.30;;
4738;SDS011;2383;48.632;10.156;2023-08-06T11:22:20;0.50;;;0.50;;
4738;SDS011;2383;48.632;10.156;2023-08-06T11:26:23;0.20;;;0.20;;
4738;SDS011;2383;48.632;10.156;2023-08-06T11:30:26;0.30;;;0.30;;
4738;SDS011;2383;48.632;10.156;2023-08-06T11:34:29;0.30;;;0.30;;
4738;SDS011;2383;48.632;10.156;2023-08-06T11:38:32;0.30;;;0.30;;
4738;SDS011;2383;48.632;10.156;2023-08-06T11:42:34;0.40;;;0.40;;
4738;SDS011;2383;48.632;10.156;2023-08-06T11:46:52;0.30;;;0.30;;
4738;SDS011;2383;48.632;10.156;2023-08-06T11:50:57;1.45;;;0.30;;
4738;SDS011;2383;48.632;10.156;2023-08-06T11:55:04;0.32;;;0.32;;
4738;SDS011;2383;48.632;10.156;2023-08-06T11:59:09;1.45;;;0.30;;
4738;SDS011;2383;48.632;10.156;2023-08-06T12:03:11;0.30;;;0.30;;
4738;SDS011;2383;48.632;10.156;2023-08-06T12:07:13;0.38;;;0.38;;
4738;SDS011;2383;48.632;10.156;2023-08-06T12:11:17;0.50;;;0.30;;
4738;SDS011;2383;48.632;10.156;2023-08-06T12:15:19;0.20;;;0.20;;
4738;SDS011;2383;48.632;10.156;2023-08-06T12:19:22;0.38;;;0.38;;
4738;SDS011;2383;48.632;10.156;2023-08-06T12:23:25;0.45;;;0.43;;
4738;SDS011;2383;48.632;10.156;2023-08-06T12:27:27;0.40;;;0.40;;
4738;SDS011;2383;48.632;10.156;2023-08-06T12:31:29;0.30;;;0.30;;
4738;SDS011;2383;48.632;10.156;2023-08-06T12:35:31;0.50;;;0.50;;
4738;SDS011;2383;48.632;10.156;2023-08-06T12:39:33;1.85;;;0.50;;
4738;SDS011;2383;48.632;10.156;2023-08-06T12:43:36;0.60;;;0.60;;
4738;SDS011;2383;48.632;10.156;2023-08-06T12:47:38;1.02;;;0.60;;
4738;SDS011;2383;48.632;10.156;2023-08-06T12:51:41;0.45;;;0.45;;
4738;SDS011;2383;48.632;10.156;2023-08-06T12:55:43;0.82;;;0.60;;
4738;SDS011;2383;48.632;10.156;2023-08-06T12:59:44;0.65;;;0.65;;
4738;SDS011;2383;48.632;10.156;2023-08-06T13:03:47;0.50;;;0.50;;
4738;SDS011;2383;48.632;10.156;2023-08-06T13:07:49;0.80;;;0.80;;
4738;SDS011;2383;48.632;10.156;2023-08-06T13:11:51;1.73;;;0.90;;
4738;SDS011;2383;48.632;10.156;2023-08-06T13:15:53;0.90;;;0.70;;
4738;SDS011;2383;48.632;10.156;2023-08-06T13:19:56;1.00;;;0.90;;
4738;SDS011;2383;48.632;10.156;2023-08-06T13:23:59;1.02;;;0.80;;
4738;SDS011;2383;48.632;10.156;2023-08-06T13:28:03;1.63;;;0.80;;
4738;SDS011;2383;48.632;10.156;2023-08-06T13:32:05;0.95;;;0.80;;
4738;SDS011;2383;48.632;10.156;2023-08-06T13:36:07;1.10;;;0.70;;
4738;SDS011;2383;48.632;10.156;2023-08-06T13:40:10;1.10;;;1.00;;
4738;SDS011;2383;48.632;10.156;2023-08-06T13:44:12;1.40;;;1.30;;
4738;SDS011;2383;48.632;10.156;2023-08-06T13:48:16;0.80;;;0.80;;
4738;SDS011;2383;48.632;10.156;2023-08-06T13:52:18;0.80;;;0.80;;
4738;SDS011;2383;48.632;10.156;2023-08-06T13:56:23;1.38;;;1.10;;
4738;SDS011;2383;48.632;10.156;2023-08-06T14:00:25;0.90;;;0.80;;
4738;SDS011;2383;48.632;10.156;2023-08-06T14:04:26;1.20;;;1.10;;
4738;SDS011;2383;48.632;10.156;2023-08-06T14:08:29;2.15;;;1.10;;
4738;SDS011;2383;48.632;10.156;2023-08-06T14:12:31;0.77;;;0.77;;
4738;SDS011;2383;48.632;10.156;2023-08-06T14:16:33;1.20;;;1.10;;
4738;SDS011;2383;48.632;10.156;2023-08-06T14:20:35;1.25;;;1.08;;
4738;SDS011;2383;48.632;10.156;2023-08-06T14:24:37;0.93;;;0.80;;
4738;SDS011;2383;48.632;10.156;2023-08-06T14:28:39;2.00;;;0.88;;
4738;SDS011;2383;48.632;10.156;2023-08-06T14:32:41;1.42;;;1.02;;
4738;SDS011;2383;48.632;10.156;2023-08-06T14:36:43;1.88;;;0.70;;
4738;SDS011;2383;48.632;10.156;2023-08-06T14:40:45;0.80;;;0.80;;
4738;SDS011;2383;48.632;10.156;2023-08-06T14:44:48;1.02;;;0.93;;
4738;SDS011;2383;48.632;10.156;2023-08-06T14:48:50;0.80;;;0.80;;
4738;SDS011;2383;48.632;10.156;2023-08-06T14:52:52;4.00;;;0.90;;
4738;SDS011;2383;48.632;10.156;2023-08-06T14:56:54;1.17;;;1.08;;
4738;SDS011;2383;48.632;10.156;2023-08-06T15:00:56;2.00;;;1.48;;
4738;SDS011;2383;48.632;10.156;2023-08-06T15:04:59;2.08;;;1.45;;
4738;SDS011;2383;48.632;10.156;2023-08-06T15:09:01;1.08;;;1.00;;
4738;SDS011;2383;48.632;10.156;2023-08-06T15:13:03;0.90;;;0.90;;
4738;SDS011;2383;48.632;10.156;2023-08-06T15:17:05;0.90;;;0.90;;
4738;SDS011;2383;48.632;10.156;2023-08-06T15:21:07;2.30;;;0.80;;
4738;SDS011;2383;48.632;10.156;2023-08-06T15:25:09;1.92;;;1.40;;
4738;SDS011;2383;48.632;10.156;2023-08-06T15:29:12;1.35;;;0.95;;
4738;SDS011;2383;48.632;10.156;2023-08-06T15:33:14;1.10;;;0.90;;
4738;SDS011;2383;48.632;10.156;2023-08-06T15:37:16;0.80;;;0.80;;
4738;SDS011;2383;48.632;10.156;2023-08-06T15:41:18;1.92;;;0.85;;
4738;SDS011;2383;48.632;10.156;2023-08-06T15:45:20;3.08;;;0.98;;
4738;SDS011;2383;48.632;10.156;2023-08-06T15:49:22;2.45;;;1.35;;
4738;SDS011;2383;48.632;10.156;2023-08-06T15:53:25;1.48;;;1.20;;
4738;SDS011;2383;48.632;10.156;2023-08-06T15:57:27;0.98;;;0.88;;
4738;SDS011;2383;48.632;10.156;2023-08-06T16:01:29;1.92;;;1.10;;
4738;SDS011;2383;48.632;10.156;2023-08-06T16:05:31;1.25;;;1.00;;
4738;SDS011;2383;48.632;10.156;2023-08-06T16:09:34;0.80;;;0.80;;
4738;SDS011;2383;48.632;10.156;2023-08-06T16:13:36;0.77;;;0.77;;
4738;SDS011;2383;48.632;10.156;2023-08-06T16:17:38;0.75;;;0.75;;
4738;SDS011;2383;48.632;10.156;2023-08-06T16:21:40;1.77;;;1.23;;
4738;SDS011;2383;48.632;10.156;2023-08-06T16:25:42;0.60;;;0.60;;
4738;SDS011;2383;48.632;10.156;2023-08-06T16:29:48;0.88;;;0.80;;
4738;SDS011;2383;48.632;10.156;2023-08-06T16:33:50;3.78;;;0.70;;
4738;SDS011;2383;48.632;10.156;2023-08-06T16:37:54;0.82;;;0.70;;
4738;SDS011;2383;48.632;10.156;2023-08-06T16:41:56;0.80;;;0.77;;
4738;SDS011;2383;48.632;10.156;2023-08-06T16:46:00;0.80;;;0.80;;
4738;SDS011;2383;48.632;10.156;2023-08-06T16:50:03;1.27;;;0.80;;
4738;SDS011;2383;48.632;10.156;2023-08-06T16:54:06;2.63;;;1.77;;
4738;SDS011;2383;48.632;10.156;2023-08-06T16:58:08;1.25;;;1.15;;
4738;SDS011;2383;48.632;10.156;2023-08-06T17:02:10;0.88;;;0.80;;
4738;SDS011;2383;48.632;10.156;2023-08-06T17:06:12;0.90;;;0.90;;
4738;SDS011;2383;48.632;10.156;2023-08-06T17:10:16;2.42;;;1.10;;
4738;SDS011;2383;48.632;10.156;2023-08-06T17:14:21;1.80;;;1.00;;
4738;SDS011;2383;48.632;10.156;2023-08-06T17:18:23;2.28;;;0.95;;
4738;SDS011;2383;48.632;10.156;2023-08-06T17:22:26;1.33;;;0.90;;
4738;SDS011;2383;48.632;10.156;2023-08-06T17:26:27;3.58;;;0.90;;
4738;SDS011;2383;48.632;10.156;2023-08-06T17:30:32;2.75;;;0.90;;
4738;SDS011;2383;48.632;10.156;2023-08-06T17:34:34;2.28;;;1.20;;
4738;SDS011;2383;48.632;10.156;2023-08-06T17:38:36;1.35;;;0.80;;
4738;SDS011;2383;48.632;10.156;2023-08-06T17:42:38;1.55;;;0.80;;
4738;SDS011;2383;48.632;10.156;2023-08-06T17:46:40;1.08;;;0.90;;
4738;SDS011;2383;48.632;10.156;2023-08-06T17:50:46;1.13;;;0.90;;
4738;SDS011;2383;48.632;10.156;2023-08-06T17:54:48;1.65;;;1.10;;
4738;SDS011;2383;48.632;10.156;2023-08-06T17:58:50;0.93;;;0.93;;
4738;SDS011;2383;48.632;10.156;2023-08-06T18:02:52;1.67;;;1.20;;
4738;SDS011;2383;48.632;10.156;2023-08-06T18:06:54;0.95;;;0.95;;
4738;SDS011;2383;48.632;10.156;2023-08-06T18:10:57;1.95;;;1.10;;
4738;SDS011;2383;48.632;10.156;2023-08-06T18:14:59;0.80;;;0.80;;
4738;SDS011;2383;48.632;10.156;2023-08-06T18:19:01;2.83;;;2.50;;
4738;SDS011;2383;48.632;10.156;2023-08-06T18:23:03;2.17;;;1.05;;
4738;SDS011;2383;48.632;10.156;2023-08-06T18:27:08;1.52;;;1.25;;
4738;SDS011;2383;48.632;10.156;2023-08-06T18:31:10;1.15;;;1.08;;
4738;SDS011;2383;48.632;10.156;2023-08-06T18:35:13;2.95;;;1.40;;
4738;SDS011;2383;48.632;10.156;2023-08-06T18:39:15;1.42;;;1.00;;
4738;SDS011;2383;48.632;10.156;2023-08-06T18:43:17;1.55;;;1.10;;
4738;SDS011;2383;48.632;10.156;2023-08-06T18:47:19;2.47;;;1.10;;
4738;SDS011;2383;48.632;10.156;2023-08-06T18:51:21;3.53;;;1.10;;
4738;SDS011;2383;48.632;10.156;2023-08-06T18:55:23;2.05;;;1.02;;
4738;SDS011;2383;48.632;10.156;2023-08-06T18:59:25;1.50;;;1.05;;
4738;SDS011;2383;48.632;10.156;2023-08-06T19:03:27;1.55;;;1.23;;
4738;SDS011;2383;48.632;10.156;2023-08-06T19:07:30;1.52;;;1.00;;
4738;SDS011;2383;48.632;10.156;2023-08-06T19:11:32;2.63;;;1.27;;
4738;SDS011;2383;48.632;10.156;2023-08-06T19:15:34;3.72;;;1.25;;
4738;SDS011;2383;48.632;10.156;2023-08-06T19:19:36;1.80;;;1.33;;
4738;SDS011;2383;48.632;10.156;2023-08-06T19:23:39;1.85;;;1.33;;
4738;SDS011;2383;48.632;10.156;2023-08-06T19:27:40;1.48;;;1.38;;
4738;SDS011;2383;48.632;10.156;2023-08-06T19:31:43;4.22;;;1.52;;
4738;SDS011;2383;48.632;10.156;2023-08-06T19:36:00;4.72;;;1.60;;
4738;SDS011;2383;48.632;10.156;2023-08-06T19:40:02;1.60;;;1.40;;
4738;SDS011;2383;48.632;10.156;2023-08-06T19:44:04;1.88;;;1.20;;
4738;SDS011;2383;48.632;10.156;2023-08-06T19:48:07;2.88;;;1.52;;
4738;SDS011;2383;48.632;10.156;2023-08-06T19:52:09;2.28;;;1.65;;
4738;SDS011;2383;48.632;10.156;2023-08-06T19:56:11;3.58;;;1.48;;
4738;SDS011;2383;48.632;10.156;2023-08-06T20:00:13;9.88;;;7.57;;
4738;SDS011;2383;48.632;10.156;2023-08-06T20:04:16;16.35;;;9.60;;
4738;SDS011;2383;48.632;10.156;2023-08-06T20:08:18;3.97;;;1.77;;
4738;SDS011;2383;48.632;10.156;2023-08-06T20:12:21;4.50;;;1.58;;
4738;SDS011;2383;48.632;10.156;2023-08-06T20:16:23;2.53;;;1.55;;
4738;SDS011;2383;48.632;10.156;2023-08-06T20:20:25;2.08;;;1.73;;
4738;SDS011;2383;48.632;10.156;2023-08-06T20:24:27;4.07;;;1.77;;
4738;SDS011;2383;48.632;10.156;2023-08-06T20:28:30;5.45;;;1.67;;
4738;SDS011;2383;48.632;10.156;2023-08-06T20:32:32;7.00;;;1.65;;
4738;SDS011;2383;48.632;10.156;2023-08-06T20:36:34;1.80;;;1.30;;
4738;SDS011;2383;48.632;10.156;2023-08-06T20:40:39;1.95;;;1.50;;
4738;SDS011;2383;48.632;10.156;2023-08-06T20:44:44;3.72;;;1.65;;
4738;SDS011;2383;48.632;10.156;2023-08-06T20:48:47;2.70;;;1.65;;
4738;SDS011;2383;48.632;10.156;2023-08-06T20:52:49;2.60;;;1.65;;
4738;SDS011;2383;48.632;10.156;2023-08-06T20:56:52;4.13;;;1.55;;
4738;SDS011;2383;48.632;10.156;2023-08-06T21:00:54;2.08;;;1.50;;
4738;SDS011;2383;48.632;10.156;2023-08-06T21:04:58;4.45;;;1.50;;
4738;SDS011;2383;48.632;10.156;2023-08-06T21:09:00;3.33;;;1.20;;
4738;SDS011;2383;48.632;10.156;2023-08-06T21:13:02;19.02;;;13.48;;
4738;SDS011;2383;48.632;10.156;2023-08-06T21:17:04;3.35;;;2.65;;
4738;SDS011;2383;48.632;10.156;2023-08-06T21:21:06;2.60;;;1.40;;
4738;SDS011;2383;48.632;10.156;2023-08-06T21:25:09;2.33;;;1.48;;
4738;SDS011;2383;48.632;10.156;2023-08-06T21:29:11;1.77;;;1.13;;
4738;SDS011;2383;48.632;10.156;2023-08-06T21:33:13;2.53;;;1.27;;
4738;SDS011;2383;48.632;10.156;2023-08-06T21:37:15;2.05;;;1.10;;
4738;SDS011;2383;48.632;10.156;2023-08-06T21:41:18;1.20;;;1.10;;
4738;SDS011;2383;48.632;10.156;2023-08-06T21:45:20;3.50;;;1.20;;
4738;SDS011;2383;48.632;10.156;2023-08-06T21:49:22;1.10;;;1.00;;
4738;SDS011;2383;48.632;10.156;2023-08-06T21:53:25;2.97;;;1.00;;
4738;SDS011;2383;48.632;10.156;2023-08-06T21:57:27;2.28;;;1.10;;
4738;SDS011;2383;48.632;10.156;2023-08-06T22:01:29;10.13;;;8.52;;
4738;SDS011;2383;48.632;10.156;2023-08-06T22:05:31;3.53;;;2.13;;
4738;SDS011;2383;48.632;10.156;2023-08-06T22:09:33;1.08;;;0.98;;
4738;SDS011;2383;48.632;10.156;2023-08-06T22:13:36;2.85;;;0.98;;
4738;SDS011;2383;48.632;10.156;2023-08-06T22:17:39;1.03;;;0.90;;
4738;SDS011;2383;48.632;10.156;2023-08-06T22:21:41;3.27;;;1.00;;
4738;SDS011;2383;48.632;10.156;2023-08-06T22:25:43;1.38;;;0.90;;
4738;SDS011;2383;48.632;10.156;2023-08-06T22:29:46;1.30;;;1.10;;
4738;SDS011;2383;48.632;10.156;2023-08-06T22:33:48;0.90;;;0.82;;
4738;SDS011;2383;48.632;10.156;2023-08-06T22:37:50;1.10;;;1.00;;
4738;SDS011;2383;48.632;10.156;2023-08-06T22:41:52;2.17;;;1.00;;
4738;SDS011;2383;48.632;10.156;2023-08-06T22:45:54;1.35;;;0.90;;
4738;SDS011;2383;48.632;10.156;2023-08-06T22:49:57;1.05;;;0.95;;
4738;SDS011;2383;48.632;10.156;2023-08-06T22:53:59;1.75;;;0.93;;
4738;SDS011;2383;48.632;10.156;2023-08-06T22:58:01;1.05;;;0.95;;
4738;SDS011;2383;48.632;10.156;2023-08-06T23:02:04;1.10;;;0.90;;
4738;SDS011;2383;48.632;10.156;2023-08-06T23:06:06;1.42;;;1.10;;
4738;SDS011;2383;48.632;10.156;2023-08-06T23:10:10;1.30;;;0.95;;
4738;SDS011;2383;48.632;10.156;2023-08-06T23:14:12;1.80;;;1.17;;
4738;SDS011;2383;48.632;10.156;2023-08-06T23:18:14;0.95;;;0.90;;
4738;SDS011;2383;48.632;10.156;2023-08-06T23:22:16;2.08;;;1.08;;
4738;SDS011;2383;48.632;10.156;2023-08-06T23:26:18;1.42;;;1.08;;
4738;SDS011;2383;48.632;10.156;2023-08-06T23:30:20;1.95;;;1.05;;
4738;SDS011;2383;48.632;10.156;2023-08-06T23:34:22;2.05;;;1.00;;
4738;SDS011;2383;48.632;10.156;2023-08-06T23:38:24;1.13;;;1.02;;
4738;SDS011;2383;48.632;10.156;2023-08-06T23:42:26;4.30;;;1.87;;
4738;SDS011;2383;48.632;10.156;2023-08-06T23:46:29;3.15;;;1.02;;
4738;SDS011;2383;48.632;10.156;2023-08-06T23:50:32;3.15;;;1.20;;
4738;SDS011;2383;48.632;10.156;2023-08-06T23:54:33;3.73;;;1.50;;
4738;SDS011;2383;48.632;10.156;2023-08-06T23:58:36;3.57;;;1.47;;
